createdAt,value
2022-08-16T00:00:03.632Z,86.30
2022-08-16T00:02:33.542Z,72.65
2022-08-16T00:05:01.838Z,58.83
2022-08-16T00:07:29.998Z,52.38
2022-08-16T00:10:00.177Z,67.10
2022-08-16T00:12:29.977Z,73.93
2022-08-16T00:14:59.533Z,103.13
2022-08-16T00:17:28.233Z,108.72
2022-08-16T00:19:56.631Z,123.75
2022-08-16T00:22:25.513Z,117.25
2022-08-16T00:24:56.406Z,117.63
2022-08-16T00:27:25.712Z,112.82
2022-08-16T00:30:08.841Z,98.60
2022-08-16T00:32:49.187Z,102.60
2022-08-16T00:35:21.709Z,89.15
2022-08-16T00:37:57.412Z,72.25
2022-08-16T00:40:34.769Z,46.00
2022-08-16T00:43:12.258Z,44.22
2022-08-16T00:45:58.372Z,52.00
2022-08-16T00:48:30.863Z,58.42
2022-08-16T00:51:00.136Z,60.75
2022-08-16T00:53:30.939Z,69.25
2022-08-16T00:56:05.513Z,69.75
2022-08-16T00:58:39.070Z,85.00
2022-08-16T01:01:08.790Z,74.38
2022-08-16T01:03:41.648Z,44.50
2022-08-16T01:06:40.186Z,41.70
2022-08-16T01:09:00.049Z,49.20
2022-08-16T01:11:29.531Z,60.33
2022-08-16T01:14:03.429Z,64.75
2022-08-16T01:16:31.718Z,65.03
2022-08-16T01:19:02.712Z,56.25
2022-08-16T01:21:39.736Z,48.03
2022-08-16T01:24:52.688Z,46.90
2022-08-16T01:27:11.348Z,46.15
2022-08-16T01:29:57.820Z,35.10
2022-08-16T01:32:31.834Z,24.63
2022-08-16T01:35:03.383Z,23.95
2022-08-16T01:37:40.026Z,19.70
2022-08-16T01:40:13.880Z,13.25
2022-08-16T01:42:44.000Z,10.35
2022-08-16T01:45:19.650Z,9.63
2022-08-16T01:47:51.090Z,11.13
2022-08-16T01:50:41.821Z,6.78
2022-08-16T01:53:08.068Z,11.43
2022-08-16T01:55:40.942Z,8.80
2022-08-16T01:58:10.857Z,9.77
2022-08-16T02:00:40.261Z,7.75
2022-08-16T02:03:08.556Z,9.93
2022-08-16T02:05:46.529Z,9.23
2022-08-16T02:08:32.675Z,12.00
2022-08-16T02:11:04.533Z,12.38
2022-08-16T02:13:32.845Z,14.52
2022-08-16T02:16:00.871Z,18.77
2022-08-16T02:18:29.621Z,19.38
2022-08-16T02:20:57.516Z,20.60
2022-08-16T02:23:29.453Z,25.92
2022-08-16T02:25:59.388Z,38.13
2022-08-16T02:28:30.088Z,53.72
2022-08-16T02:31:00.069Z,64.28
2022-08-16T02:33:43.258Z,68.35
2022-08-16T02:36:14.301Z,77.13
2022-08-16T02:38:42.670Z,65.80
2022-08-16T02:41:12.124Z,60.20
2022-08-16T02:43:41.959Z,48.45
2022-08-16T02:46:10.272Z,42.38
2022-08-16T02:48:39.289Z,30.20
2022-08-16T02:51:17.151Z,44.70
2022-08-16T02:53:47.837Z,65.68
2022-08-16T02:56:18.305Z,58.30
2022-08-16T02:58:49.443Z,44.47
2022-08-16T03:01:24.890Z,45.85
2022-08-16T03:04:29.834Z,44.92
2022-08-16T03:06:56.781Z,42.70
2022-08-16T03:09:29.897Z,42.80
2022-08-16T03:12:00.971Z,43.00
2022-08-16T03:14:32.737Z,34.75
2022-08-16T03:17:01.998Z,52.75
2022-08-16T03:19:47.463Z,58.10
2022-08-16T03:22:28.031Z,53.65
2022-08-16T03:25:01.142Z,62.90
2022-08-16T03:27:32.266Z,61.45
2022-08-16T03:30:16.287Z,34.83
2022-08-16T03:32:45.346Z,36.15
2022-08-16T03:35:17.924Z,33.72
2022-08-16T03:38:02.145Z,27.25
2022-08-16T03:40:33.372Z,27.05
2022-08-16T03:43:20.187Z,39.97
2022-08-16T03:45:52.658Z,30.15
2022-08-16T03:48:36.340Z,34.33
2022-08-16T03:51:08.547Z,38.60
2022-08-16T03:53:38.482Z,20.35
2022-08-16T03:56:19.803Z,17.42
2022-08-16T03:58:51.019Z,13.95
2022-08-16T04:01:23.573Z,17.30
2022-08-16T04:03:57.137Z,14.90
2022-08-16T04:06:25.209Z,12.98
2022-08-16T04:08:54.866Z,16.77
2022-08-16T04:11:23.696Z,60.30
2022-08-16T04:14:00.408Z,85.50
2022-08-16T04:16:38.347Z,84.70
2022-08-16T04:19:06.543Z,69.90
2022-08-16T04:21:35.299Z,69.97
2022-08-16T04:24:04.018Z,72.95
2022-08-16T04:26:36.323Z,62.00
2022-08-16T04:29:23.342Z,62.65
2022-08-16T04:31:56.129Z,63.40
2022-08-16T04:34:27.512Z,30.48
2022-08-16T04:36:56.564Z,37.25
2022-08-16T04:39:25.179Z,41.50
2022-08-16T04:42:11.394Z,31.33
2022-08-16T04:44:54.292Z,31.83
2022-08-16T04:47:31.366Z,42.85
2022-08-16T04:50:00.997Z,73.40
2022-08-16T04:52:34.468Z,59.10
2022-08-16T04:55:06.776Z,47.20
2022-08-16T04:57:35.577Z,61.42
2022-08-16T05:00:32.271Z,77.75
2022-08-16T05:02:58.785Z,100.78
2022-08-16T05:05:30.684Z,76.30
2022-08-16T05:08:29.215Z,48.17
2022-08-16T05:10:50.612Z,16.95
2022-08-16T05:13:19.175Z,16.65
2022-08-16T05:15:47.564Z,12.63
2022-08-16T05:18:23.303Z,13.35
2022-08-16T05:21:01.706Z,10.15
2022-08-16T05:23:37.869Z,9.98
2022-08-16T05:26:06.149Z,12.40
2022-08-16T05:28:47.700Z,15.00
2022-08-16T05:31:29.214Z,16.42
2022-08-16T05:34:00.341Z,21.50
2022-08-16T05:36:33.910Z,39.47
2022-08-16T05:39:03.768Z,71.38
2022-08-16T05:41:31.627Z,70.15
2022-08-16T05:44:00.385Z,60.03
2022-08-16T05:46:33.739Z,48.72
2022-08-16T05:49:09.106Z,49.58
2022-08-16T05:51:39.853Z,66.55
2022-08-16T05:54:09.625Z,67.07
2022-08-16T05:56:40.020Z,65.95
2022-08-16T05:59:08.439Z,70.30
2022-08-16T06:01:38.210Z,74.55
2022-08-16T06:04:12.833Z,47.33
2022-08-16T06:06:57.787Z,97.65
2022-08-16T06:09:42.779Z,93.18
2022-08-16T06:12:12.699Z,102.13
2022-08-16T06:14:58.730Z,91.15
2022-08-16T06:17:43.538Z,101.93
2022-08-16T06:20:23.101Z,85.78
2022-08-16T06:22:58.638Z,112.03
2022-08-16T06:25:35.904Z,98.35
2022-08-16T06:28:09.598Z,109.18
2022-08-16T06:30:43.830Z,88.65
2022-08-16T06:33:22.440Z,91.38
2022-08-16T06:35:54.667Z,94.65
2022-08-16T06:38:32.242Z,90.60
2022-08-16T06:41:01.259Z,101.20
2022-08-16T06:43:30.420Z,94.43
2022-08-16T06:45:59.667Z,82.78
2022-08-16T06:48:33.199Z,56.35
2022-08-16T06:51:04.120Z,37.03
2022-08-16T06:53:35.542Z,78.95
2022-08-16T06:56:14.241Z,72.47
2022-08-16T06:58:48.901Z,51.00
2022-08-16T07:01:21.410Z,51.85
2022-08-16T07:03:54.950Z,52.67
2022-08-16T07:06:27.395Z,75.18
2022-08-16T07:08:55.927Z,88.00
2022-08-16T07:11:45.693Z,93.45
2022-08-16T07:14:25.117Z,76.70
2022-08-16T07:16:55.825Z,70.30
2022-08-16T07:20:01.512Z,71.22
2022-08-16T07:22:37.038Z,29.70
2022-08-16T07:25:05.343Z,37.80
2022-08-16T07:27:33.861Z,85.60
2022-08-16T07:30:39.715Z,67.35
2022-08-16T07:32:55.829Z,80.60
2022-08-16T07:35:24.216Z,77.38
2022-08-16T07:37:54.334Z,42.08
2022-08-16T07:40:36.926Z,35.58
2022-08-16T07:43:10.717Z,80.88
2022-08-16T07:45:39.282Z,39.67
2022-08-16T07:48:11.765Z,53.65
2022-08-16T07:50:55.837Z,53.95
2022-08-16T07:53:29.120Z,60.88
2022-08-16T07:55:57.691Z,55.55
2022-08-16T07:58:35.127Z,58.03
2022-08-16T08:01:10.764Z,50.47
2022-08-16T08:03:47.608Z,82.13
2022-08-16T08:06:17.155Z,86.35
2022-08-16T08:08:51.413Z,68.88
2022-08-16T08:11:24.412Z,73.90
2022-08-16T08:13:57.541Z,98.50
2022-08-16T08:16:31.941Z,112.65
2022-08-16T08:19:02.530Z,103.78
2022-08-16T08:22:00.233Z,111.35
2022-08-16T08:24:22.852Z,106.72
2022-08-16T08:27:02.476Z,100.68
2022-08-16T08:29:37.744Z,70.15
2022-08-16T08:32:48.970Z,39.35
2022-08-16T08:35:00.508Z,39.88
2022-08-16T08:37:55.653Z,48.00
2022-08-16T08:40:24.282Z,43.08
2022-08-16T08:43:00.310Z,67.22
2022-08-16T08:45:47.911Z,45.20
2022-08-16T08:48:32.879Z,54.92
2022-08-16T08:51:02.883Z,65.22
2022-08-16T08:53:30.927Z,72.85
2022-08-16T08:56:00.291Z,49.15
2022-08-16T08:58:34.300Z,43.60
2022-08-16T09:01:03.057Z,44.75
2022-08-16T09:03:32.962Z,35.63
2022-08-16T09:06:02.838Z,20.05
2022-08-16T09:08:31.497Z,18.23
2022-08-16T09:11:07.351Z,23.58
2022-08-16T09:13:35.873Z,35.13
2022-08-16T09:16:04.402Z,53.08
2022-08-16T09:18:35.621Z,69.60
2022-08-16T09:21:09.497Z,81.97
2022-08-16T09:23:37.976Z,97.93
2022-08-16T09:26:44.707Z,94.00
2022-08-16T09:29:14.576Z,108.43
2022-08-16T09:31:44.930Z,105.47
2022-08-16T09:34:15.935Z,81.97
2022-08-16T09:36:46.718Z,86.38
2022-08-16T09:39:16.301Z,86.72
2022-08-16T09:41:53.073Z,88.60
2022-08-16T09:45:12.236Z,75.20
2022-08-16T09:47:12.607Z,69.05
2022-08-16T09:49:41.299Z,64.40
2022-08-16T09:52:10.376Z,57.03
2022-08-16T09:54:44.529Z,60.47
2022-08-16T09:57:14.688Z,50.70
2022-08-16T09:59:43.300Z,58.42
2022-08-16T10:02:26.176Z,63.50
2022-08-16T10:04:55.922Z,81.57
2022-08-16T10:07:24.473Z,94.18
2022-08-16T10:09:56.162Z,106.95
2022-08-16T10:12:45.407Z,83.85
2022-08-16T10:15:15.239Z,54.80
2022-08-16T10:17:45.728Z,58.25
2022-08-16T10:20:31.446Z,64.30
2022-08-16T10:23:05.825Z,63.00
2022-08-16T10:27:17.874Z,79.78
2022-08-16T10:28:28.902Z,104.13
2022-08-16T10:30:59.161Z,96.25
2022-08-16T10:33:29.333Z,69.30
2022-08-16T10:36:02.716Z,51.72
2022-08-16T10:38:33.203Z,52.90
2022-08-16T10:41:05.492Z,63.72
2022-08-16T10:43:37.563Z,72.15
2022-08-16T10:46:39.341Z,66.30
2022-08-16T10:48:56.093Z,74.45
2022-08-16T10:51:33.577Z,85.95
2022-08-16T10:54:04.804Z,79.35
2022-08-16T10:56:56.114Z,87.20
2022-08-16T10:59:44.584Z,125.40
2022-08-16T11:02:59.864Z,88.50
2022-08-16T11:05:06.827Z,104.53
2022-08-16T11:07:54.872Z,80.85
2022-08-16T11:19:04.824Z,40.28
2022-08-16T11:22:11.091Z,41.85
2022-08-16T11:24:41.945Z,31.85
2022-08-16T11:27:23.623Z,26.83
2022-08-16T11:29:55.080Z,25.70
2022-08-16T11:32:31.985Z,18.88
2022-08-16T11:35:13.729Z,22.60
2022-08-16T11:40:38.819Z,22.20
2022-08-16T11:43:10.106Z,26.88
2022-08-16T11:45:38.399Z,27.80
2022-08-16T11:48:08.901Z,37.25
2022-08-16T11:50:37.027Z,30.70
2022-08-16T11:53:06.504Z,36.05
2022-08-16T11:55:38.220Z,51.47
2022-08-16T11:58:07.104Z,47.92
2022-08-16T12:00:51.860Z,63.55
2022-08-16T12:03:29.742Z,74.25
2022-08-16T12:06:04.070Z,74.70
2022-08-16T12:08:33.452Z,85.45
2022-08-16T12:11:02.573Z,94.32
2022-08-16T12:13:30.644Z,119.18
2022-08-16T12:15:58.902Z,108.53
2022-08-16T12:18:28.494Z,105.05
2022-08-16T12:20:58.311Z,104.88
2022-08-16T12:23:28.357Z,107.20
2022-08-16T12:25:59.679Z,119.10
2022-08-16T12:28:54.305Z,99.10
2022-08-16T12:31:16.313Z,77.53
2022-08-16T12:33:45.990Z,66.40
2022-08-16T12:36:17.132Z,77.45
2022-08-16T12:38:47.968Z,104.40
2022-08-16T12:41:24.690Z,108.55
2022-08-16T12:43:57.056Z,110.22
2022-08-16T12:46:31.079Z,92.93
2022-08-16T12:49:01.120Z,86.38
2022-08-16T12:51:58.796Z,75.18
2022-08-16T12:54:21.506Z,53.70
2022-08-16T12:56:50.447Z,49.80
2022-08-16T12:59:20.522Z,65.10
2022-08-16T13:01:50.574Z,75.28
2022-08-16T13:04:33.131Z,83.25
2022-08-16T13:09:33.030Z,67.32
2022-08-16T13:12:19.170Z,91.30
2022-08-16T13:14:50.151Z,107.25
2022-08-16T13:17:20.994Z,115.10
2022-08-16T13:20:09.037Z,85.70
2022-08-16T13:25:08.952Z,53.38
2022-08-16T13:28:02.638Z,79.80
2022-08-16T13:30:37.694Z,80.68
2022-08-16T13:33:12.573Z,91.63
2022-08-16T13:35:45.307Z,73.85
2022-08-16T13:38:21.644Z,82.68
2022-08-16T13:40:56.114Z,71.85
2022-08-16T13:43:26.304Z,58.10
2022-08-16T13:45:55.438Z,40.67
2022-08-16T13:48:25.097Z,45.05
2022-08-16T13:50:56.367Z,50.95
2022-08-16T13:53:24.934Z,61.50
2022-08-16T13:55:58.675Z,45.08
2022-08-16T13:58:34.831Z,47.80
2022-08-16T14:01:03.850Z,46.20
2022-08-16T14:03:37.557Z,73.82
2022-08-16T14:06:07.713Z,81.35
2022-08-16T14:08:42.451Z,101.68
2022-08-16T14:11:12.065Z,94.82
2022-08-16T14:13:41.042Z,87.90
2022-08-16T14:16:12.658Z,88.82
2022-08-16T14:18:52.869Z,69.97
2022-08-16T14:21:23.654Z,67.60
2022-08-16T14:23:52.675Z,71.72
2022-08-16T14:26:21.564Z,52.72
2022-08-16T14:28:53.357Z,52.17
2022-08-16T14:31:23.624Z,55.72
2022-08-16T14:33:51.740Z,63.70
2022-08-16T14:36:29.886Z,64.47
2022-08-16T14:39:01.994Z,66.70
2022-08-16T14:41:30.847Z,64.82
2022-08-16T14:44:00.672Z,50.13
2022-08-16T14:46:28.928Z,57.30
2022-08-16T14:48:56.991Z,63.40
2022-08-16T14:51:27.415Z,91.10
2022-08-16T14:53:57.004Z,85.45
2022-08-16T14:56:39.025Z,108.53
2022-08-16T14:59:11.322Z,100.32
2022-08-16T15:01:57.477Z,128.25
2022-08-16T15:04:39.254Z,131.02
2022-08-16T15:07:21.890Z,125.28
2022-08-16T15:10:00.374Z,125.68
2022-08-16T15:12:33.564Z,109.75
2022-08-16T15:15:04.474Z,111.47
2022-08-16T15:17:53.854Z,89.75
2022-08-16T15:20:26.250Z,92.68
2022-08-16T15:22:55.430Z,74.30
2022-08-16T15:25:27.496Z,53.95
2022-08-16T15:27:58.927Z,57.53
2022-08-16T15:30:56.425Z,75.07
2022-08-16T15:33:18.593Z,72.53
2022-08-16T15:35:50.214Z,101.18
2022-08-16T15:38:43.585Z,9.27
2022-08-16T15:41:06.809Z,5.68
2022-08-16T15:43:39.181Z,5.10
2022-08-16T15:46:35.056Z,5.72
2022-08-16T15:49:13.995Z,10.30
2022-08-16T15:51:43.509Z,8.50
2022-08-16T15:54:21.455Z,14.25
2022-08-16T15:57:09.605Z,18.38
2022-08-16T15:59:49.293Z,23.48
2022-08-16T16:02:29.683Z,24.60
2022-08-16T16:05:02.069Z,23.33
2022-08-16T16:07:32.098Z,22.63
2022-08-16T16:10:03.032Z,14.85
2022-08-16T16:12:51.461Z,18.17
2022-08-16T16:15:23.078Z,12.98
2022-08-16T16:17:52.916Z,11.48
2022-08-16T16:20:22.203Z,18.02
2022-08-16T16:22:52.905Z,18.50
2022-08-16T16:25:21.327Z,6.80
2022-08-16T16:27:55.735Z,33.28
2022-08-16T16:30:38.305Z,21.30
2022-08-16T16:33:20.648Z,28.40
2022-08-16T16:35:55.408Z,21.05
2022-08-16T16:38:28.621Z,50.08
2022-08-16T16:40:56.563Z,69.88
2022-08-16T16:43:26.075Z,139.27
2022-08-16T16:46:02.022Z,97.43
2022-08-16T16:48:34.774Z,135.60
2022-08-16T16:51:09.046Z,143.40
2022-08-16T16:53:39.422Z,150.80
2022-08-16T16:56:10.367Z,186.48
2022-08-16T16:58:56.231Z,162.38
2022-08-16T17:01:49.320Z,173.63
2022-08-16T17:04:24.016Z,182.43
2022-08-16T17:06:59.584Z,185.50
2022-08-16T17:09:27.634Z,187.95
2022-08-16T17:11:56.377Z,151.57
2022-08-16T17:14:33.438Z,113.93
2022-08-16T17:17:06.800Z,140.88
2022-08-16T17:19:37.515Z,116.97
2022-08-16T17:22:14.329Z,133.48
2022-08-16T17:24:50.247Z,121.90
2022-08-16T17:27:20.038Z,148.55
2022-08-16T17:30:01.545Z,145.38
2022-08-16T17:32:33.925Z,179.07
2022-08-16T17:35:19.299Z,143.68
2022-08-16T17:37:50.715Z,164.43
2022-08-16T17:40:46.975Z,170.15
2022-08-16T17:43:13.442Z,163.43
2022-08-16T17:45:42.408Z,179.25
2022-08-16T17:48:11.907Z,129.55
2022-08-16T17:50:40.943Z,125.57
2022-08-16T17:53:10.475Z,180.30
2022-08-16T17:55:42.208Z,176.80
2022-08-16T17:58:23.573Z,167.93
2022-08-16T18:00:53.918Z,159.63
2022-08-16T18:04:06.683Z,142.80
2022-08-16T18:06:16.827Z,165.45
2022-08-16T18:08:48.650Z,158.63
2022-08-16T18:11:18.200Z,123.72
2022-08-16T18:13:46.616Z,118.75
2022-08-16T18:16:16.730Z,137.43
2022-08-16T18:18:46.933Z,161.18
2022-08-16T18:21:33.719Z,166.50
2022-08-16T18:24:02.376Z,182.25
2022-08-16T18:26:30.329Z,178.85
2022-08-16T18:28:58.369Z,177.05
2022-08-16T18:31:26.245Z,182.20
2022-08-16T18:33:56.413Z,183.95
2022-08-16T18:36:24.492Z,137.93
2022-08-16T18:38:53.593Z,139.90
2022-08-16T18:41:23.512Z,164.00
2022-08-16T18:43:58.839Z,160.82
2022-08-16T18:46:41.122Z,162.85
2022-08-16T18:49:11.545Z,172.70
2022-08-16T18:51:43.317Z,177.85
2022-08-16T18:54:11.776Z,155.85
2022-08-16T18:56:57.368Z,138.93
2022-08-16T18:59:27.422Z,138.93
2022-08-16T19:02:00.605Z,145.93
2022-08-16T19:04:50.486Z,143.38
2022-08-16T19:07:22.622Z,135.15
2022-08-16T19:09:50.517Z,150.80
2022-08-16T19:12:38.501Z,149.45
2022-08-16T19:15:10.697Z,142.70
2022-08-16T19:17:40.435Z,156.43
2022-08-16T19:20:11.644Z,168.93
2022-08-16T19:23:02.035Z,171.35
2022-08-16T19:25:47.837Z,158.48
2022-08-16T19:28:48.847Z,155.38
2022-08-16T19:31:10.877Z,163.48
2022-08-16T19:33:40.887Z,161.45
2022-08-16T19:36:31.480Z,156.45
2022-08-16T19:39:04.980Z,142.35
2022-08-16T19:41:35.434Z,153.60
2022-08-16T19:44:03.901Z,162.23
2022-08-16T19:46:32.035Z,163.02
2022-08-16T19:49:03.097Z,162.52
2022-08-16T19:51:32.416Z,165.02
2022-08-16T19:54:00.305Z,166.98
2022-08-16T19:56:28.527Z,151.07
2022-08-16T19:59:17.967Z,151.07
2022-08-16T20:01:45.286Z,166.38
2022-08-16T20:04:13.530Z,155.65
2022-08-16T20:06:43.749Z,150.05
2022-08-16T20:09:15.717Z,128.23
2022-08-16T20:11:44.868Z,129.70
2022-08-16T20:14:24.617Z,121.00
2022-08-16T20:16:56.018Z,116.85
2022-08-16T20:19:24.498Z,131.65
2022-08-16T20:21:54.086Z,146.07
2022-08-16T20:24:37.343Z,155.13
2022-08-16T20:27:09.578Z,150.55
2022-08-16T20:29:38.906Z,151.73
2022-08-16T20:32:08.303Z,147.90
2022-08-16T20:34:37.612Z,146.32
2022-08-16T20:37:07.235Z,154.50
2022-08-16T20:39:35.401Z,146.38
2022-08-16T20:42:03.720Z,144.80
2022-08-16T20:44:31.712Z,160.52
2022-08-16T20:46:59.731Z,158.27
2022-08-16T20:49:28.518Z,152.85
2022-08-16T20:51:59.501Z,125.45
2022-08-16T20:54:29.808Z,126.70
2022-08-16T20:56:58.080Z,114.78
2022-08-16T20:59:26.136Z,114.90
2022-08-16T21:01:54.242Z,124.75
2022-08-16T21:04:25.557Z,134.45
2022-08-16T21:06:55.122Z,145.82
2022-08-16T21:09:28.889Z,137.90
2022-08-16T21:12:00.815Z,140.88
2022-08-16T21:14:29.599Z,136.68
2022-08-16T21:16:57.950Z,123.97
2022-08-16T21:19:27.006Z,127.63
2022-08-16T21:21:56.062Z,130.57
2022-08-16T21:24:24.484Z,127.00
2022-08-16T21:26:56.108Z,105.97
2022-08-16T21:29:37.802Z,94.75
2022-08-16T21:32:10.804Z,98.68
2022-08-16T21:34:39.357Z,106.63
2022-08-16T21:37:07.774Z,110.95
2022-08-16T21:39:35.995Z,110.22
2022-08-16T21:42:06.652Z,100.75
2022-08-16T21:44:39.039Z,106.35
2022-08-16T21:47:08.234Z,100.05
2022-08-16T21:49:37.824Z,116.38
2022-08-16T21:52:06.551Z,111.38
2022-08-16T21:54:34.874Z,89.68
2022-08-16T21:57:04.026Z,52.33
2022-08-16T21:59:33.705Z,61.50
2022-08-16T22:02:03.398Z,62.58
2022-08-16T22:04:37.414Z,81.63
2022-08-16T22:07:07.606Z,63.17
2022-08-16T22:09:35.866Z,48.60
2022-08-16T22:12:03.795Z,51.03
2022-08-16T22:14:31.713Z,63.50
2022-08-16T22:16:59.998Z,97.60
2022-08-16T22:19:29.298Z,110.75
2022-08-16T22:21:57.395Z,129.40
2022-08-16T22:24:25.560Z,142.77
2022-08-16T22:26:53.456Z,123.88
2022-08-16T22:29:21.302Z,118.97
2022-08-16T22:31:49.159Z,104.22
2022-08-16T22:34:17.085Z,118.68
2022-08-16T22:36:46.785Z,146.75
2022-08-16T22:39:16.230Z,120.82
2022-08-16T22:41:45.820Z,109.97
2022-08-16T22:44:15.443Z,78.20
2022-08-16T22:46:44.302Z,47.58
2022-08-16T22:49:12.998Z,26.00
2022-08-16T22:51:41.942Z,27.30
2022-08-16T22:54:34.348Z,23.30
2022-08-16T22:56:59.384Z,40.55
2022-08-16T22:59:28.888Z,33.03
2022-08-16T23:01:56.834Z,33.70
2022-08-16T23:04:25.422Z,31.10
2022-08-16T23:06:54.319Z,24.58
2022-08-16T23:09:23.604Z,31.65
2022-08-16T23:11:51.810Z,47.90
2022-08-16T23:14:20.445Z,45.42
2022-08-16T23:16:48.302Z,71.57
2022-08-16T23:19:17.539Z,98.10
2022-08-16T23:21:47.138Z,106.55
2022-08-16T23:24:19.504Z,132.07
2022-08-16T23:26:49.711Z,88.45
2022-08-16T23:29:24.715Z,94.07
2022-08-16T23:31:55.994Z,108.95
2022-08-16T23:34:24.174Z,121.30
2022-08-16T23:36:52.199Z,122.70
2022-08-16T23:39:20.147Z,116.05
2022-08-16T23:41:49.480Z,119.63
2022-08-16T23:44:56.369Z,130.68
2022-08-16T23:47:07.315Z,112.82
2022-08-16T23:49:58.240Z,112.95
2022-08-16T23:52:45.724Z,96.88
2022-08-16T23:55:11.712Z,87.07
2022-08-16T23:57:41.350Z,85.95
